Time;durP1;ratioP1;P1;durP2;ratioP2;P2;SDS_P1;SDS_P2;PMS_P1;PMS_P2;Temp;Humidity;BMP_temperature;BMP_pressure;BME280_temperature;BME280_humidity;BME280_pressure;Samples;Min_cycle;Max_cycle;Signal;HPM_P1;HPM_P2
2023/12/17 00:02:10;;;;;;;12.55;5.78;;;;;;;;;;4999944;28;89012;-64
2023/12/17 00:04:36;;;;;;;16.17;5.35;;;;;;;;;;5007722;28;90452;-64
2023/12/17 00:07:03;;;;;;;8.73;5.28;;;;;;;;;;5005348;28;89075;-64
2023/12/17 00:09:29;;;;;;;8.38;5.25;;;;;;;;;;5005522;28;87993;-64
2023/12/17 00:11:55;;;;;;;18.45;5.82;;;;;;;;;;5001957;28;87908;-64
2023/12/17 00:14:22;;;;;;;10.98;6.25;;;;;;;;;;5000133;28;90139;-63
2023/12/17 00:16:48;;;;;;;9.70;5.43;;;;;;;;;;5007842;28;88062;-64
2023/12/17 00:19:14;;;;;;;12.25;5.13;;;;;;;;;;5010405;28;89689;-64
2023/12/17 00:21:41;;;;;;;9.27;5.07;;;;;;;;;;5006061;28;88510;-64
2023/12/17 00:24:07;;;;;;;8.80;5.32;;;;;;;;;;5006641;28;89812;-64
2023/12/17 00:26:34;;;;;;;8.70;6.00;;;;;;;;;;5003937;28;89452;-64
2023/12/17 00:29:00;;;;;;;12.65;5.25;;;;;;;;;;5008750;28;87946;-64
2023/12/17 00:31:26;;;;;;;13.98;5.60;;;;;;;;;;5003774;28;89858;-64
2023/12/17 00:33:53;;;;;;;7.57;5.18;;;;;;;;;;4993842;28;89032;-64
2023/12/17 00:36:19;;;;;;;11.52;5.47;;;;;;;;;;5007209;28;88050;-63
2023/12/17 00:38:45;;;;;;;13.07;5.50;;;;;;;;;;5002454;28;88777;-64
2023/12/17 00:41:12;;;;;;;7.95;4.93;;;;;;;;;;5010172;28;89006;-64
2023/12/17 00:43:39;;;;;;;7.88;4.78;;;;;;;;;;5005989;28;87418;-64
2023/12/17 00:46:05;;;;;;;12.40;5.45;;;;;;;;;;5004490;28;88932;-64
2023/12/17 00:48:32;;;;;;;12.07;5.25;;;;;;;;;;5004965;28;88877;-65
2023/12/17 00:50:59;;;;;;;9.65;5.05;;;;;;;;;;5001278;28;88756;-65
2023/12/17 00:53:25;;;;;;;15.13;5.55;;;;;;;;;;5003398;28;88836;-65
2023/12/17 00:55:51;;;;;;;8.90;4.82;;;;;;;;;;5001615;28;88261;-66
2023/12/17 00:58:18;;;;;;;8.35;4.68;;;;;;;;;;5003550;28;89726;-66
2023/12/17 01:00:44;;;;;;;10.15;4.50;;;;;;;;;;5004369;28;90440;-65
2023/12/17 01:03:20;;;;;;;10.05;4.95;;;;;;;;;;5004983;28;88701;-65
2023/12/17 01:05:47;;;;;;;6.70;4.57;;;;;;;;;;5002509;28;88941;-66
2023/12/17 01:08:13;;;;;;;10.05;4.88;;;;;;;;;;5002407;28;88021;-66
2023/12/17 01:10:41;;;;;;;12.43;5.30;;;;;;;;;;4996539;28;88422;-66
2023/12/17 01:13:07;;;;;;;9.77;4.85;;;;;;;;;;4998808;28;88980;-66
2023/12/17 01:15:34;;;;;;;10.68;4.53;;;;;;;;;;4998167;28;88783;-66
2023/12/17 01:18:00;;;;;;;11.40;5.30;;;;;;;;;;4992883;28;89563;-66
2023/12/17 01:20:27;;;;;;;9.45;4.78;;;;;;;;;;5004986;28;88965;-66
2023/12/17 01:22:53;;;;;;;9.77;4.88;;;;;;;;;;5005506;28;88238;-66
2023/12/17 01:25:19;;;;;;;7.10;4.13;;;;;;;;;;5003808;28;88806;-66
2023/12/17 01:27:46;;;;;;;15.57;5.63;;;;;;;;;;5005950;28;87980;-65
2023/12/17 01:30:12;;;;;;;10.88;4.70;;;;;;;;;;5002187;28;88866;-65
2023/12/17 01:32:39;;;;;;;10.52;4.38;;;;;;;;;;5003214;28;88233;-66
2023/12/17 01:35:08;;;;;;;9.05;4.28;;;;;;;;;;4997984;28;88211;-65
2023/12/17 01:37:34;;;;;;;11.20;5.03;;;;;;;;;;4996807;28;88773;-65
2023/12/17 01:40:01;;;;;;;10.60;4.35;;;;;;;;;;5000927;28;90250;-66
2023/12/17 01:42:27;;;;;;;7.75;4.43;;;;;;;;;;5003291;28;88514;-66
2023/12/17 01:44:53;;;;;;;7.30;3.90;;;;;;;;;;5000321;28;88737;-65
2023/12/17 01:47:20;;;;;;;14.95;4.63;;;;;;;;;;4996895;28;89142;-65
2023/12/17 01:49:46;;;;;;;5.85;4.30;;;;;;;;;;4989925;28;88882;-65
2023/12/17 01:52:13;;;;;;;8.23;4.75;;;;;;;;;;4994350;28;89055;-66
2023/12/17 01:54:39;;;;;;;13.18;4.63;;;;;;;;;;5004588;28;88068;-66
2023/12/17 01:57:05;;;;;;;14.30;4.53;;;;;;;;;;4994102;28;90572;-65
2023/12/17 01:59:32;;;;;;;11.07;4.43;;;;;;;;;;5000341;28;90114;-65
2023/12/17 02:01:59;;;;;;;8.55;4.10;;;;;;;;;;4998853;28;88980;-66
2023/12/17 02:04:26;;;;;;;9.15;4.72;;;;;;;;;;4998432;28;89656;-66
2023/12/17 02:06:52;;;;;;;8.52;4.47;;;;;;;;;;5001263;28;89095;-66
2023/12/17 02:09:19;;;;;;;8.55;4.43;;;;;;;;;;5006450;28;88897;-65
2023/12/17 02:11:46;;;;;;;9.88;4.18;;;;;;;;;;4997651;28;89177;-65
2023/12/17 02:14:12;;;;;;;9.90;3.90;;;;;;;;;;4999759;28;88099;-65
2023/12/17 02:16:39;;;;;;;9.85;3.95;;;;;;;;;;5006353;28;88670;-66
2023/12/17 02:19:05;;;;;;;7.50;3.92;;;;;;;;;;5000392;28;89004;-65
2023/12/17 02:21:31;;;;;;;12.73;4.57;;;;;;;;;;5000124;28;87841;-65
2023/12/17 02:23:58;;;;;;;8.75;4.00;;;;;;;;;;5002773;28;89403;-66
2023/12/17 02:26:24;;;;;;;9.70;3.90;;;;;;;;;;5002036;28;89089;-65
2023/12/17 02:28:51;;;;;;;17.17;4.22;;;;;;;;;;5007715;28;89023;-66
2023/12/17 02:31:17;;;;;;;10.45;5.05;;;;;;;;;;5007230;28;88975;-65
2023/12/17 02:33:43;;;;;;;10.48;4.80;;;;;;;;;;5003110;28;88123;-66
2023/12/17 02:36:10;;;;;;;9.25;3.72;;;;;;;;;;4996464;28;88781;-65
2023/12/17 02:38:36;;;;;;;5.68;3.75;;;;;;;;;;5004595;28;89027;-65
2023/12/17 02:41:03;;;;;;;10.80;4.15;;;;;;;;;;4995348;28;88219;-65
2023/12/17 02:43:29;;;;;;;6.30;3.47;;;;;;;;;;4999887;28;89852;-65
2023/12/17 02:45:55;;;;;;;9.88;3.90;;;;;;;;;;5000441;28;88276;-65
2023/12/17 02:48:22;;;;;;;7.97;3.47;;;;;;;;;;4991702;28;90803;-65
2023/12/17 02:50:48;;;;;;;6.22;3.30;;;;;;;;;;5007778;28;87978;-65
2023/12/17 02:53:15;;;;;;;9.15;3.55;;;;;;;;;;5002758;28;88939;-65
2023/12/17 02:55:41;;;;;;;7.20;3.35;;;;;;;;;;4994513;28;90538;-65
2023/12/17 02:58:07;;;;;;;6.82;3.33;;;;;;;;;;4998251;28;88973;-65
2023/12/17 03:00:34;;;;;;;9.35;3.15;;;;;;;;;;4999388;28;88292;-65
2023/12/17 03:03:00;;;;;;;7.95;3.60;;;;;;;;;;4998554;28;88207;-65
2023/12/17 03:05:27;;;;;;;7.13;3.38;;;;;;;;;;5001517;28;89066;-65
2023/12/17 03:07:53;;;;;;;4.47;2.78;;;;;;;;;;5007589;28;88049;-63
2023/12/17 03:10:19;;;;;;;7.80;3.55;;;;;;;;;;5002764;28;89004;-63
2023/12/17 03:12:46;;;;;;;9.20;3.20;;;;;;;;;;5002030;28;89444;-63
2023/12/17 03:15:12;;;;;;;14.30;3.50;;;;;;;;;;5005769;28;89617;-63
2023/12/17 03:17:38;;;;;;;4.70;3.08;;;;;;;;;;4997752;28;89637;-64
2023/12/17 03:20:06;;;;;;;8.48;3.97;;;;;;;;;;5004915;28;88045;-63
2023/12/17 03:22:32;;;;;;;14.18;3.95;;;;;;;;;;4998992;28;89172;-63
2023/12/17 03:24:59;;;;;;;12.23;4.32;;;;;;;;;;5005284;28;88906;-63
2023/12/17 03:27:25;;;;;;;7.60;3.80;;;;;;;;;;4999526;28;88162;-63
2023/12/17 03:29:52;;;;;;;12.15;4.60;;;;;;;;;;5000640;28;89783;-63
2023/12/17 03:32:18;;;;;;;16.20;4.38;;;;;;;;;;5000452;28;89476;-63
2023/12/17 03:34:46;;;;;;;13.60;4.22;;;;;;;;;;5004102;28;87870;-63
2023/12/17 03:37:13;;;;;;;12.02;3.88;;;;;;;;;;4997742;28;88978;-63
2023/12/17 03:39:39;;;;;;;10.55;4.22;;;;;;;;;;5004909;28;88087;-64
2023/12/17 03:42:05;;;;;;;20.90;5.68;;;;;;;;;;4996013;28;89809;-63
2023/12/17 03:44:33;;;;;;;7.97;3.97;;;;;;;;;;4999256;28;90182;-63
2023/12/17 03:46:59;;;;;;;18.98;5.50;;;;;;;;;;5000054;28;88066;-63
2023/12/17 03:49:26;;;;;;;23.25;6.28;;;;;;;;;;4998200;28;88771;-63
2023/12/17 03:51:52;;;;;;;13.45;5.70;;;;;;;;;;5000525;28;90078;-63
2023/12/17 03:54:18;;;;;;;18.17;6.22;;;;;;;;;;5000873;28;88125;-63
2023/12/17 03:56:46;;;;;;;18.60;6.38;;;;;;;;;;5002764;28;88818;-63
2023/12/17 03:59:12;;;;;;;19.60;6.63;;;;;;;;;;5003507;28;88925;-63
2023/12/17 04:01:48;;;;;;;14.38;5.97;;;;;;;;;;4995054;28;91414;-65
2023/12/17 04:04:14;;;;;;;24.02;6.88;;;;;;;;;;5000811;28;88866;-63
2023/12/17 04:06:42;;;;;;;11.68;5.75;;;;;;;;;;5001213;28;88747;-65
2023/12/17 04:09:09;;;;;;;16.48;5.65;;;;;;;;;;4998172;28;88900;-65
2023/12/17 04:11:35;;;;;;;19.70;5.63;;;;;;;;;;4999910;28;89318;-65
2023/12/17 04:14:01;;;;;;;19.02;6.13;;;;;;;;;;5004715;28;88895;-65
2023/12/17 04:16:28;;;;;;;12.98;4.93;;;;;;;;;;5005545;28;88865;-65
2023/12/17 04:18:54;;;;;;;11.43;5.40;;;;;;;;;;5003938;28;88514;-64
2023/12/17 04:21:21;;;;;;;19.45;4.97;;;;;;;;;;5002728;28;88860;-65
2023/12/17 04:23:47;;;;;;;16.08;4.78;;;;;;;;;;5005235;28;88230;-65
2023/12/17 04:26:14;;;;;;;12.82;4.93;;;;;;;;;;4999744;28;88477;-65
2023/12/17 04:28:40;;;;;;;20.70;5.18;;;;;;;;;;4997695;28;88686;-65
2023/12/17 04:31:06;;;;;;;15.30;5.10;;;;;;;;;;5002365;28;89734;-65
2023/12/17 04:33:33;;;;;;;11.63;4.93;;;;;;;;;;5001896;28;88116;-65
2023/12/17 04:35:59;;;;;;;13.65;4.45;;;;;;;;;;5002134;28;88753;-65
2023/12/17 04:38:25;;;;;;;15.30;4.50;;;;;;;;;;5003419;28;88003;-65
2023/12/17 04:40:52;;;;;;;15.43;5.15;;;;;;;;;;4998215;28;88479;-65
2023/12/17 04:43:18;;;;;;;10.38;4.20;;;;;;;;;;5002666;28;88963;-65
2023/12/17 04:45:44;;;;;;;14.93;4.55;;;;;;;;;;5002379;28;87973;-64
2023/12/17 04:48:11;;;;;;;12.45;4.38;;;;;;;;;;5002582;28;89997;-64
2023/12/17 04:50:37;;;;;;;13.63;4.63;;;;;;;;;;4998996;28;89022;-64
2023/12/17 04:53:04;;;;;;;16.45;4.80;;;;;;;;;;5005633;28;88250;-64
2023/12/17 04:55:30;;;;;;;11.48;4.82;;;;;;;;;;4996073;28;89328;-64
2023/12/17 04:57:56;;;;;;;11.30;4.40;;;;;;;;;;5001044;28;89003;-65
2023/12/17 05:00:23;;;;;;;10.15;4.40;;;;;;;;;;5006484;28;89157;-64
2023/12/17 05:02:49;;;;;;;10.73;4.68;;;;;;;;;;5003274;28;88971;-65
2023/12/17 05:05:15;;;;;;;9.63;4.20;;;;;;;;;;4988714;28;91108;-65
2023/12/17 05:07:42;;;;;;;10.27;3.72;;;;;;;;;;5002353;28;88683;-65
2023/12/17 05:10:09;;;;;;;8.43;3.97;;;;;;;;;;5000814;28;89435;-64
2023/12/17 05:12:35;;;;;;;15.45;4.63;;;;;;;;;;5001392;28;87862;-64
2023/12/17 05:15:01;;;;;;;10.10;4.38;;;;;;;;;;5001071;28;88001;-64
2023/12/17 05:17:28;;;;;;;14.82;5.07;;;;;;;;;;4995841;28;88868;-64
2023/12/17 05:19:54;;;;;;;11.10;4.13;;;;;;;;;;4998711;28;88994;-64
2023/12/17 05:22:20;;;;;;;11.60;4.38;;;;;;;;;;5004925;28;89477;-64
2023/12/17 05:24:48;;;;;;;14.93;4.22;;;;;;;;;;5002335;28;88818;-64
2023/12/17 05:27:15;;;;;;;14.05;3.92;;;;;;;;;;4993976;28;88642;-64
2023/12/17 05:29:41;;;;;;;9.93;4.20;;;;;;;;;;4999511;28;88995;-64
2023/12/17 05:32:07;;;;;;;10.27;4.35;;;;;;;;;;4993706;28;88047;-64
2023/12/17 05:34:34;;;;;;;9.55;4.85;;;;;;;;;;5003047;28;89822;-64
2023/12/17 05:37:00;;;;;;;8.45;4.20;;;;;;;;;;4995796;28;88263;-65
2023/12/17 05:39:27;;;;;;;13.00;5.20;;;;;;;;;;4999298;28;88510;-64
2023/12/17 05:41:53;;;;;;;12.38;4.75;;;;;;;;;;4998554;28;88763;-64
2023/12/17 05:44:20;;;;;;;12.77;5.10;;;;;;;;;;5000358;28;90953;-64
2023/12/17 05:46:46;;;;;;;11.63;4.85;;;;;;;;;;5000080;28;89486;-64
2023/12/17 05:49:12;;;;;;;17.52;5.97;;;;;;;;;;5001380;28;88916;-64
2023/12/17 05:51:43;;;;;;;12.80;6.25;;;;;;;;;;4997412;28;88003;-64
2023/12/17 05:54:11;;;;;;;15.68;7.07;;;;;;;;;;4999142;28;88789;-64
2023/12/17 05:56:39;;;;;;;18.38;7.22;;;;;;;;;;5000860;28;90129;-64
2023/12/17 05:59:05;;;;;;;16.63;7.57;;;;;;;;;;5000980;28;88933;-64
2023/12/17 06:01:32;;;;;;;18.40;7.43;;;;;;;;;;5000725;28;89800;-64
2023/12/17 06:03:58;;;;;;;29.38;8.88;;;;;;;;;;4995935;28;91075;-64
2023/12/17 06:06:24;;;;;;;22.65;8.68;;;;;;;;;;5006932;28;88875;-64
2023/12/17 06:08:53;;;;;;;30.85;9.43;;;;;;;;;;5004476;28;89789;-64
2023/12/17 06:11:20;;;;;;;27.92;9.38;;;;;;;;;;5005252;28;88485;-64
2023/12/17 06:13:46;;;;;;;27.30;10.23;;;;;;;;;;4998272;28;88691;-64
2023/12/17 06:16:12;;;;;;;22.88;10.20;;;;;;;;;;4999014;28;91906;-64
2023/12/17 06:18:39;;;;;;;23.02;11.23;;;;;;;;;;5001565;28;91097;-64
2023/12/17 06:21:05;;;;;;;20.00;11.45;;;;;;;;;;5004053;28;89577;-64
2023/12/17 06:23:32;;;;;;;22.55;11.73;;;;;;;;;;5005232;28;89208;-64
2023/12/17 06:25:58;;;;;;;31.20;13.07;;;;;;;;;;5009458;28;89938;-64
2023/12/17 06:28:25;;;;;;;29.98;12.75;;;;;;;;;;5007474;28;90536;-64
2023/12/17 06:30:51;;;;;;;28.45;13.60;;;;;;;;;;5004815;28;91149;-63
2023/12/17 06:33:18;;;;;;;27.27;15.02;;;;;;;;;;5004984;28;89895;-64
2023/12/17 06:35:45;;;;;;;29.40;16.17;;;;;;;;;;5000080;28;89073;-64
2023/12/17 06:38:11;;;;;;;33.55;16.70;;;;;;;;;;5007892;28;90211;-64
2023/12/17 06:40:37;;;;;;;32.50;17.23;;;;;;;;;;4996514;28;89126;-65
2023/12/17 06:43:04;;;;;;;30.48;18.23;;;;;;;;;;5005642;28;89012;-66
2023/12/17 06:45:30;;;;;;;36.65;18.15;;;;;;;;;;4999204;28;89976;-65
2023/12/17 06:47:56;;;;;;;40.15;20.05;;;;;;;;;;5009109;28;89177;-66
2023/12/17 06:50:23;;;;;;;40.30;19.92;;;;;;;;;;5006248;28;89707;-66
2023/12/17 06:52:49;;;;;;;34.70;17.75;;;;;;;;;;4999259;28;89480;-65
2023/12/17 06:55:16;;;;;;;38.40;18.85;;;;;;;;;;5006296;28;89096;-65
2023/12/17 06:57:47;;;;;;;44.78;19.75;;;;;;;;;;5005339;28;90032;-66
2023/12/17 07:00:14;;;;;;;38.63;18.75;;;;;;;;;;4994256;28;89313;-66
2023/12/17 07:02:41;;;;;;;37.25;18.95;;;;;;;;;;5001457;28;90019;-66
2023/12/17 07:05:08;;;;;;;36.65;19.25;;;;;;;;;;5004652;28;89914;-65
2023/12/17 07:07:35;;;;;;;38.55;19.63;;;;;;;;;;4999707;28;89268;-65
2023/12/17 07:10:01;;;;;;;38.50;19.73;;;;;;;;;;5005028;28;89445;-65
2023/12/17 07:12:28;;;;;;;42.70;20.30;;;;;;;;;;5000367;28;89501;-65
2023/12/17 07:14:54;;;;;;;33.53;19.13;;;;;;;;;;4990999;28;90011;-65
2023/12/17 07:17:20;;;;;;;41.40;18.30;;;;;;;;;;5000259;28;89826;-65
2023/12/17 07:19:47;;;;;;;33.78;18.40;;;;;;;;;;4998340;28;89496;-66
2023/12/17 07:22:13;;;;;;;38.55;18.58;;;;;;;;;;5000560;28;89538;-66
2023/12/17 07:24:40;;;;;;;29.05;17.33;;;;;;;;;;4998644;28;91100;-65
2023/12/17 07:27:06;;;;;;;26.40;15.77;;;;;;;;;;5004879;28;89554;-65
2023/12/17 07:29:32;;;;;;;25.45;13.73;;;;;;;;;;5004898;28;89189;-65
2023/12/17 07:31:59;;;;;;;24.50;13.13;;;;;;;;;;5001670;28;90015;-65
2023/12/17 07:34:25;;;;;;;28.85;13.63;;;;;;;;;;5002565;28;89005;-66
2023/12/17 07:36:52;;;;;;;26.02;12.07;;;;;;;;;;4993847;28;90036;-65
2023/12/17 07:39:18;;;;;;;17.88;10.70;;;;;;;;;;5004001;28;89607;-66
2023/12/17 07:41:45;;;;;;;23.52;11.80;;;;;;;;;;5006664;28;89322;-65
2023/12/17 07:44:12;;;;;;;21.92;11.25;;;;;;;;;;5004291;28;90280;-65
2023/12/17 07:46:38;;;;;;;19.63;11.55;;;;;;;;;;4999891;28;89242;-66
2023/12/17 07:49:05;;;;;;;29.42;12.05;;;;;;;;;;5000850;28;89405;-65
2023/12/17 07:51:32;;;;;;;16.20;10.25;;;;;;;;;;5002958;28;90031;-65
2023/12/17 07:53:58;;;;;;;18.05;10.57;;;;;;;;;;5008313;28;89549;-65
2023/12/17 07:56:25;;;;;;;23.73;10.57;;;;;;;;;;5002615;28;91094;-65
2023/12/17 07:58:52;;;;;;;19.02;10.70;;;;;;;;;;4998248;28;90780;-65
2023/12/17 08:01:27;;;;;;;22.33;11.38;;;;;;;;;;5005088;28;89103;-65
2023/12/17 08:03:53;;;;;;;15.98;10.35;;;;;;;;;;4997875;28;90911;-65
2023/12/17 08:06:20;;;;;;;20.90;11.27;;;;;;;;;;5005523;28;90115;-65
2023/12/17 08:08:47;;;;;;;17.58;10.90;;;;;;;;;;4999778;28;89073;-65
2023/12/17 08:11:13;;;;;;;18.65;11.40;;;;;;;;;;5005510;28;90032;-65
2023/12/17 08:13:39;;;;;;;20.02;11.48;;;;;;;;;;5006100;28;90601;-65
2023/12/17 08:16:06;;;;;;;18.27;11.70;;;;;;;;;;5005881;28;89067;-65
2023/12/17 08:18:32;;;;;;;19.27;12.35;;;;;;;;;;4997466;28;89160;-65
2023/12/17 08:20:59;;;;;;;16.58;11.60;;;;;;;;;;5001771;28;90063;-65
2023/12/17 08:23:25;;;;;;;23.42;12.75;;;;;;;;;;5005541;28;90333;-65
2023/12/17 08:25:52;;;;;;;19.80;11.48;;;;;;;;;;5004127;28;90623;-65
2023/12/17 08:28:21;;;;;;;21.05;13.73;;;;;;;;;;5004812;28;90420;-65
2023/12/17 08:30:48;;;;;;;22.65;13.73;;;;;;;;;;5003617;28;89953;-64
2023/12/17 08:33:15;;;;;;;24.88;15.63;;;;;;;;;;5001672;28;89643;-65
2023/12/17 08:35:43;;;;;;;30.75;15.45;;;;;;;;;;4997200;28;90139;-65
2023/12/17 08:38:10;;;;;;;25.88;14.60;;;;;;;;;;5007024;28;89211;-64
2023/12/17 08:40:37;;;;;;;28.48;15.07;;;;;;;;;;5003171;28;89204;-65
2023/12/17 08:43:04;;;;;;;34.72;15.82;;;;;;;;;;4998040;28;90031;-65
2023/12/17 08:45:30;;;;;;;26.65;16.20;;;;;;;;;;4995868;28;89488;-65
2023/12/17 08:47:57;;;;;;;33.20;16.42;;;;;;;;;;4994887;28;89832;-65
2023/12/17 08:50:24;;;;;;;28.75;16.40;;;;;;;;;;5006195;28;89981;-65
2023/12/17 08:52:50;;;;;;;40.38;18.17;;;;;;;;;;5003748;28;89471;-65
2023/12/17 08:55:17;;;;;;;31.88;16.45;;;;;;;;;;5000628;28;90032;-69
2023/12/17 08:57:43;;;;;;;34.83;18.17;;;;;;;;;;4998377;28;89615;-64
2023/12/17 09:00:10;;;;;;;31.80;18.77;;;;;;;;;;5003965;28;89699;-64
2023/12/17 09:02:36;;;;;;;35.88;18.60;;;;;;;;;;4997389;28;92807;-64
2023/12/17 09:05:03;;;;;;;32.92;18.80;;;;;;;;;;4999821;28;90643;-64
2023/12/17 09:07:29;;;;;;;39.88;19.80;;;;;;;;;;4995771;28;89068;-64
2023/12/17 09:09:56;;;;;;;37.85;19.35;;;;;;;;;;4999507;28;90004;-64
2023/12/17 09:12:22;;;;;;;33.50;19.67;;;;;;;;;;4999965;28;89804;-64
2023/12/17 09:14:49;;;;;;;40.53;20.35;;;;;;;;;;4994022;28;89081;-64
2023/12/17 09:17:15;;;;;;;37.58;20.25;;;;;;;;;;5002512;28;91025;-64
2023/12/17 09:19:42;;;;;;;42.33;21.08;;;;;;;;;;5004827;28;89494;-63
2023/12/17 09:22:09;;;;;;;46.38;21.70;;;;;;;;;;5000543;28;91130;-64
2023/12/17 09:24:35;;;;;;;38.78;19.38;;;;;;;;;;4995722;28;90806;-64
2023/12/17 09:27:03;;;;;;;40.75;21.77;;;;;;;;;;4996946;28;89200;-63
2023/12/17 09:29:29;;;;;;;43.17;20.88;;;;;;;;;;5001403;28;90131;-64
2023/12/17 09:31:55;;;;;;;38.28;20.58;;;;;;;;;;4993473;28;89576;-64
2023/12/17 09:34:23;;;;;;;34.25;19.95;;;;;;;;;;5002197;28;89206;-64
2023/12/17 09:36:49;;;;;;;31.38;18.20;;;;;;;;;;4998887;28;90093;-64
2023/12/17 09:39:16;;;;;;;31.88;18.08;;;;;;;;;;5000549;28;90404;-63
2023/12/17 09:41:42;;;;;;;26.52;17.05;;;;;;;;;;5004257;28;89114;-64
2023/12/17 09:44:08;;;;;;;28.33;16.70;;;;;;;;;;5001694;28;90586;-64
2023/12/17 09:46:35;;;;;;;27.90;16.30;;;;;;;;;;5002359;28;89119;-64
2023/12/17 09:49:02;;;;;;;25.80;15.55;;;;;;;;;;4998857;28;91084;-64
2023/12/17 09:51:28;;;;;;;28.08;16.63;;;;;;;;;;4981187;28;90618;-64
2023/12/17 09:53:56;;;;;;;30.85;16.17;;;;;;;;;;5000864;28;89995;-64
2023/12/17 09:56:23;;;;;;;32.58;18.88;;;;;;;;;;4996767;28;89791;-64
2023/12/17 09:58:50;;;;;;;29.35;17.20;;;;;;;;;;4998539;28;89499;-64
2023/12/17 10:01:16;;;;;;;28.63;17.25;;;;;;;;;;4996988;28;89029;-64
2023/12/17 10:03:43;;;;;;;28.13;16.70;;;;;;;;;;4983877;28;89975;-63
2023/12/17 10:06:09;;;;;;;27.30;16.05;;;;;;;;;;4999633;28;89232;-63
2023/12/17 10:08:36;;;;;;;27.40;16.27;;;;;;;;;;5000396;28;90120;-63
2023/12/17 10:11:03;;;;;;;29.98;17.73;;;;;;;;;;5001042;28;90668;-64
2023/12/17 10:13:29;;;;;;;27.55;16.95;;;;;;;;;;5001593;28;89730;-64
2023/12/17 10:15:56;;;;;;;31.15;18.10;;;;;;;;;;4991079;28;90573;-63
2023/12/17 10:18:22;;;;;;;34.55;18.55;;;;;;;;;;4997424;28;90542;-64
2023/12/17 10:20:49;;;;;;;30.33;17.88;;;;;;;;;;5005685;28;89390;-64
2023/12/17 10:23:16;;;;;;;35.15;18.10;;;;;;;;;;4992231;28;91206;-64
2023/12/17 10:25:43;;;;;;;33.33;17.27;;;;;;;;;;5004228;28;90705;-64
2023/12/17 10:28:10;;;;;;;28.48;17.15;;;;;;;;;;5004504;28;89802;-64
2023/12/17 10:30:37;;;;;;;31.50;17.98;;;;;;;;;;5004112;28;90548;-64
2023/12/17 10:33:05;;;;;;;31.48;18.02;;;;;;;;;;5002460;28;88977;-64
2023/12/17 10:35:32;;;;;;;27.45;17.95;;;;;;;;;;5007298;28;91095;-64
2023/12/17 10:38:03;;;;;;;33.42;19.23;;;;;;;;;;5002909;28;90749;-64
2023/12/17 10:40:30;;;;;;;33.33;19.20;;;;;;;;;;5002417;28;89070;-64
2023/12/17 10:42:58;;;;;;;35.25;20.52;;;;;;;;;;5005161;28;90220;-64
2023/12/17 10:45:25;;;;;;;35.70;20.77;;;;;;;;;;5008837;28;90989;-63
2023/12/17 10:47:53;;;;;;;36.35;21.42;;;;;;;;;;5009466;28;90189;-63
2023/12/17 10:50:20;;;;;;;40.45;22.83;;;;;;;;;;5005564;28;90461;-63
2023/12/17 10:52:49;;;;;;;39.40;22.25;;;;;;;;;;5008564;28;90281;-63
2023/12/17 10:55:16;;;;;;;40.95;23.50;;;;;;;;;;5004626;28;90013;-63
2023/12/17 10:57:46;;;;;;;42.00;23.77;;;;;;;;;;5006365;28;90613;-63
2023/12/17 11:00:14;;;;;;;42.28;23.95;;;;;;;;;;5000530;28;89982;-63
2023/12/17 11:02:41;;;;;;;40.88;22.67;;;;;;;;;;5007510;28;89896;-63
2023/12/17 11:05:07;;;;;;;40.75;21.77;;;;;;;;;;5005692;28;89525;-63
2023/12/17 11:07:33;;;;;;;42.47;21.92;;;;;;;;;;5010201;28;89850;-63
2023/12/17 11:10:09;;;;;;;37.60;20.88;;;;;;;;;;5007052;28;90787;-63
2023/12/17 11:12:35;;;;;;;37.63;20.88;;;;;;;;;;5004934;28;89454;-63
2023/12/17 11:15:02;;;;;;;31.02;20.17;;;;;;;;;;5005642;28;90676;-63
2023/12/17 11:17:29;;;;;;;33.38;19.42;;;;;;;;;;5001282;28;89069;-63
2023/12/17 11:19:57;;;;;;;35.95;20.17;;;;;;;;;;4998800;28;89836;-63
2023/12/17 11:22:24;;;;;;;33.67;19.55;;;;;;;;;;5002193;28;89754;-65
2023/12/17 11:24:52;;;;;;;32.33;20.50;;;;;;;;;;5001021;28;89694;-65
2023/12/17 11:27:21;;;;;;;37.97;20.58;;;;;;;;;;4998449;28;89715;-65
2023/12/17 11:29:49;;;;;;;33.28;20.08;;;;;;;;;;5010304;28;92814;-65
2023/12/17 11:32:19;;;;;;;34.83;20.83;;;;;;;;;;4999560;28;90057;-64
2023/12/17 11:34:50;;;;;;;37.53;20.55;;;;;;;;;;5005789;28;91473;-64
2023/12/17 11:37:20;;;;;;;38.38;19.85;;;;;;;;;;5001668;28;89531;-64
2023/12/17 11:39:48;;;;;;;36.45;20.70;;;;;;;;;;5000611;28;89401;-64
2023/12/17 11:42:15;;;;;;;49.58;24.77;;;;;;;;;;4999979;28;90022;-64
2023/12/17 11:44:42;;;;;;;43.30;22.85;;;;;;;;;;5006870;28;90595;-64
2023/12/17 11:47:09;;;;;;;37.97;22.00;;;;;;;;;;5004916;28;89323;-64
2023/12/17 11:49:36;;;;;;;32.63;20.13;;;;;;;;;;5006526;28;91210;-64
2023/12/17 11:52:22;;;;;;;37.28;19.23;;;;;;;;;;5006659;28;89701;-64
2023/12/17 11:54:56;;;;;;;32.20;18.92;;;;;;;;;;5001349;28;90065;-64
2023/12/17 11:57:23;;;;;;;28.63;15.90;;;;;;;;;;4996368;28;89570;-64
2023/12/17 11:59:50;;;;;;;25.77;15.27;;;;;;;;;;5001130;28;90078;-65
2023/12/17 12:02:19;;;;;;;24.73;16.73;;;;;;;;;;5007074;28;88942;-64
2023/12/17 12:04:46;;;;;;;28.58;17.05;;;;;;;;;;5007218;28;90520;-64
2023/12/17 12:07:17;;;;;;;27.23;15.95;;;;;;;;;;5005056;28;89922;-64
2023/12/17 12:09:44;;;;;;;29.17;15.90;;;;;;;;;;5003862;28;89951;-64
2023/12/17 12:12:20;;;;;;;28.83;16.48;;;;;;;;;;5006852;28;90493;-65
2023/12/17 12:14:48;;;;;;;29.88;15.60;;;;;;;;;;5006753;28;90085;-64
2023/12/17 12:17:33;;;;;;;26.00;16.55;;;;;;;;;;4996200;28;89796;-64
2023/12/17 12:19:59;;;;;;;24.80;15.43;;;;;;;;;;4977312;28;89101;-64
2023/12/17 12:22:27;;;;;;;22.90;14.98;;;;;;;;;;5007041;28;91016;-65
2023/12/17 12:24:56;;;;;;;26.80;14.48;;;;;;;;;;5004057;28;90550;-64
2023/12/17 12:27:23;;;;;;;30.45;14.50;;;;;;;;;;5000591;28;89995;-65
2023/12/17 12:29:51;;;;;;;22.10;12.48;;;;;;;;;;5010843;28;91398;-65
2023/12/17 12:32:30;;;;;;;30.77;13.60;;;;;;;;;;5003787;28;89673;-64
2023/12/17 12:35:00;;;;;;;27.83;12.35;;;;;;;;;;4997078;28;89131;-65
2023/12/17 12:37:33;;;;;;;28.83;11.93;;;;;;;;;;5006949;28;90051;-65
2023/12/17 12:40:00;;;;;;;21.83;10.38;;;;;;;;;;5005859;28;89143;-65
2023/12/17 12:42:31;;;;;;;21.38;9.77;;;;;;;;;;5000643;28;90025;-65
2023/12/17 12:44:57;;;;;;;27.00;11.25;;;;;;;;;;5003598;28;89455;-65
2023/12/17 12:47:24;;;;;;;21.95;10.20;;;;;;;;;;5005095;28;88970;-65
2023/12/17 12:49:51;;;;;;;24.65;9.43;;;;;;;;;;4988482;28;91658;-65
2023/12/17 12:52:18;;;;;;;26.50;10.02;;;;;;;;;;5000841;28;90641;-65
2023/12/17 12:54:46;;;;;;;22.80;9.05;;;;;;;;;;4997458;28;89058;-64
2023/12/17 12:57:12;;;;;;;25.45;9.15;;;;;;;;;;5008353;28;90048;-64
2023/12/17 12:59:39;;;;;;;23.60;8.85;;;;;;;;;;5004390;28;88301;-64
2023/12/17 13:02:05;;;;;;;26.77;9.32;;;;;;;;;;5003723;28;88318;-64
2023/12/17 13:04:32;;;;;;;25.30;9.38;;;;;;;;;;5005410;28;88744;-63
2023/12/17 13:06:59;;;;;;;29.30;9.23;;;;;;;;;;5000781;28;89619;-63
2023/12/17 13:09:25;;;;;;;23.58;9.40;;;;;;;;;;5003289;28;87952;-63
2023/12/17 13:11:53;;;;;;;19.70;8.25;;;;;;;;;;5000792;28;88630;-64
2023/12/17 13:14:19;;;;;;;23.98;8.73;;;;;;;;;;5000804;28;90043;-63
2023/12/17 13:16:46;;;;;;;33.35;8.57;;;;;;;;;;5001444;28;89290;-64
2023/12/17 13:19:13;;;;;;;29.83;9.00;;;;;;;;;;5004644;28;88785;-64
2023/12/17 13:21:41;;;;;;;24.05;6.95;;;;;;;;;;4998638;28;87995;-64
2023/12/17 13:24:07;;;;;;;29.17;7.70;;;;;;;;;;4996141;28;90012;-64
2023/12/17 13:26:34;;;;;;;30.33;7.30;;;;;;;;;;5004225;28;89403;-64
2023/12/17 13:29:00;;;;;;;22.75;6.70;;;;;;;;;;5004627;28;89168;-64
2023/12/17 13:31:26;;;;;;;25.98;6.32;;;;;;;;;;5002206;28;89898;-64
2023/12/17 13:33:53;;;;;;;17.40;5.55;;;;;;;;;;4999910;28;89418;-66
2023/12/17 13:36:20;;;;;;;24.65;6.60;;;;;;;;;;5004598;28;88101;-66
2023/12/17 13:38:47;;;;;;;23.42;6.40;;;;;;;;;;5006276;28;89850;-64
2023/12/17 13:41:14;;;;;;;27.10;6.20;;;;;;;;;;5008433;28;88936;-65
2023/12/17 13:43:40;;;;;;;23.33;5.25;;;;;;;;;;5003667;28;87908;-64
2023/12/17 13:46:07;;;;;;;23.13;6.07;;;;;;;;;;5004689;28;89050;-65
2023/12/17 13:48:33;;;;;;;24.65;5.70;;;;;;;;;;5007512;28;87823;-64
2023/12/17 13:51:00;;;;;;;18.15;5.07;;;;;;;;;;4999497;28;88132;-65
2023/12/17 13:53:26;;;;;;;20.48;5.50;;;;;;;;;;5003790;28;89183;-64
2023/12/17 13:55:53;;;;;;;17.08;5.38;;;;;;;;;;5000077;28;89104;-64
2023/12/17 13:58:19;;;;;;;18.70;5.15;;;;;;;;;;5006691;28;89533;-64
2023/12/17 14:00:46;;;;;;;17.33;5.22;;;;;;;;;;5004341;28;88887;-64
2023/12/17 14:03:12;;;;;;;19.35;4.80;;;;;;;;;;5008330;28;87944;-64
2023/12/17 14:05:39;;;;;;;18.58;4.90;;;;;;;;;;5006063;28;90046;-64
2023/12/17 14:08:05;;;;;;;22.98;5.57;;;;;;;;;;5004543;28;88132;-64
2023/12/17 14:10:32;;;;;;;16.73;4.78;;;;;;;;;;5002898;28;88767;-64
2023/12/17 14:13:00;;;;;;;17.25;4.50;;;;;;;;;;5011509;28;88132;-63
2023/12/17 14:15:26;;;;;;;26.13;6.20;;;;;;;;;;5007221;28;88088;-64
2023/12/17 14:17:53;;;;;;;14.80;4.40;;;;;;;;;;5009496;28;89075;-64
2023/12/17 14:20:19;;;;;;;22.27;5.50;;;;;;;;;;5007598;28;89697;-64
2023/12/17 14:22:52;;;;;;;32.53;5.95;;;;;;;;;;5006699;28;88525;-64
2023/12/17 14:25:18;;;;;;;22.23;4.47;;;;;;;;;;5012364;28;89823;-64